Time;durP1;ratioP1;P1;durP2;ratioP2;P2;SDS_P1;SDS_P2;PMS_P1;PMS_P2;Temp;Humidity;BMP_temperature;BMP_pressure;BME280_temperature;BME280_humidity;BME280_pressure;Samples;Min_cycle;Max_cycle;Signal;HPM_P1;HPM_P2
2023/06/13 00:00:40;;;;;;;8.27;4.20;;;;;;;-143.48;36.90;118439.88;5093525;28;20027;-39
2023/06/13 00:03:09;;;;;;;8.55;3.88;;;;;;;-143.48;37.04;118439.88;5093319;28;20074;-40
2023/06/13 00:05:34;;;;;;;7.85;3.80;;;;;;;-143.48;36.84;118439.88;5093490;28;20025;-40
2023/06/13 00:07:59;;;;;;;6.50;4.05;;;;;;;-143.48;36.46;118439.88;5096495;28;20073;-40
2023/06/13 00:10:25;;;;;;;7.25;3.90;;;;;;;-143.48;36.65;118439.88;5097627;28;20042;-40
2023/06/13 00:12:51;;;;;;;10.60;3.85;;;;;;;-143.48;36.56;118439.88;5097701;28;20069;-40
2023/06/13 00:15:18;;;;;;;8.98;3.85;;;;;;;-143.48;36.90;118439.88;5097258;28;20474;-40
2023/06/13 00:17:45;;;;;;;5.60;4.22;;;;;;;-143.48;36.71;118439.88;5097513;28;20024;-40
2023/06/13 00:20:11;;;;;;;10.63;4.07;;;;;;;-143.48;36.87;118439.88;5097281;28;20020;-40
2023/06/13 00:22:37;;;;;;;18.73;4.30;;;;;;;-143.48;37.00;118439.88;5097231;28;20028;-40
2023/06/13 00:25:02;;;;;;;10.45;4.40;;;;;;;-143.48;37.07;118439.88;5097406;28;20028;-40
2023/06/13 00:27:27;;;;;;;9.90;4.20;;;;;;;-143.48;36.90;118439.88;5097098;28;20069;-39
2023/06/13 00:29:53;;;;;;;9.02;4.28;;;;;;;-143.48;36.92;118439.88;5097325;28;20385;-40
2023/06/13 00:32:18;;;;;;;8.23;3.92;;;;;;;-143.48;36.64;118439.88;5096833;28;20035;-40
2023/06/13 00:34:44;;;;;;;6.22;4.07;;;;;;;-143.48;37.71;118439.88;5097400;28;20032;-40
2023/06/13 00:37:10;;;;;;;5.95;4.03;;;;;;;-143.48;36.83;118439.88;5097198;28;20412;-40
2023/06/13 00:39:39;;;;;;;10.05;4.00;;;;;;;-143.48;37.27;118439.88;5078574;28;20028;-44
2023/06/13 00:42:06;;;;;;;9.85;4.40;;;;;;;-143.48;37.18;118439.88;5097129;28;20046;-39
2023/06/13 00:44:32;;;;;;;7.22;4.13;;;;;;;-143.48;37.30;118439.88;5096962;28;20027;-39
2023/06/13 00:46:57;;;;;;;8.88;4.20;;;;;;;-143.48;37.53;118439.88;5097047;28;20366;-39
2023/06/13 00:49:25;;;;;;;10.45;4.03;;;;;;;-143.48;37.75;118439.88;5096705;28;20367;-39
2023/06/13 00:51:51;;;;;;;8.65;4.05;;;;;;;-143.48;37.67;118439.88;5096456;28;20044;-39
2023/06/13 00:54:17;;;;;;;6.55;4.07;;;;;;;-143.48;37.75;118439.88;5096517;28;20030;-39
2023/06/13 00:56:44;;;;;;;10.07;4.20;;;;;;;-143.48;37.57;118439.88;5096817;28;20069;-39
2023/06/13 00:59:10;;;;;;;8.55;4.10;;;;;;;-143.48;37.67;118439.88;5096737;28;20020;-39
2023/06/13 01:01:36;;;;;;;11.25;4.10;;;;;;;-143.48;37.85;118439.88;5096716;28;20489;-39
2023/06/13 01:04:02;;;;;;;10.18;4.05;;;;;;;-143.48;37.58;118439.88;5096340;28;20042;-39
2023/06/13 01:06:28;;;;;;;5.80;3.63;;;;;;;-143.48;37.91;118439.88;5078216;28;20032;-39
2023/06/13 01:08:58;;;;;;;6.18;4.20;;;;;;;-143.48;37.96;118439.88;5096321;28;20099;-39
2023/06/13 01:11:33;;;;;;;14.57;4.28;;;;;;;-143.48;37.75;118439.88;5096131;28;20085;-39
2023/06/13 01:14:14;;;;;;;7.97;4.43;;;;;;;-143.48;37.80;118439.88;5096406;28;20438;-39
2023/06/13 01:16:47;;;;;;;8.63;4.47;;;;;;;-143.48;37.58;118439.88;5078787;28;20370;-39
2023/06/13 01:19:28;;;;;;;8.07;4.13;;;;;;;-143.48;37.61;118439.88;5095612;28;20028;-39
2023/06/13 01:21:56;;;;;;;6.43;4.20;;;;;;;-143.48;37.77;118439.88;5096055;28;20024;-39
2023/06/13 01:24:34;;;;;;;7.68;4.10;;;;;;;-143.48;37.78;118439.88;5096568;28;20028;-39
2023/06/13 01:27:01;;;;;;;8.85;4.55;;;;;;;-143.48;38.02;118439.88;5095999;28;20039;-39
2023/06/13 01:29:28;;;;;;;6.95;4.07;;;;;;;-143.48;37.49;118439.88;5095807;28;20032;-39
2023/06/13 01:31:56;;;;;;;9.70;4.47;;;;;;;-143.48;37.89;118439.88;5095384;28;20118;-39
2023/06/13 01:34:22;;;;;;;8.55;4.18;;;;;;;-143.48;38.02;118439.88;5096403;28;20031;-39
2023/06/13 01:36:48;;;;;;;7.43;4.38;;;;;;;-143.48;37.67;118439.88;5095831;28;20474;-39
2023/06/13 01:39:13;;;;;;;8.63;4.47;;;;;;;-143.48;38.16;118439.88;5095920;28;20069;-39
2023/06/13 01:41:38;;;;;;;8.02;4.18;;;;;;;-143.48;38.08;118439.88;5095699;28;20020;-39
2023/06/13 01:44:05;;;;;;;12.68;4.45;;;;;;;-143.48;38.47;118439.88;5077509;28;20024;-39
2023/06/13 01:46:36;;;;;;;9.38;4.47;;;;;;;-143.48;38.58;118439.88;5095573;28;20039;-39
2023/06/13 01:49:29;;;;;;;5.90;4.15;;;;;;;-143.48;38.65;118439.88;5095861;28;20343;-40
2023/06/13 01:52:06;;;;;;;10.60;4.25;;;;;;;-143.48;38.39;118439.88;5095122;28;20447;-39
2023/06/13 01:54:36;;;;;;;9.90;4.40;;;;;;;-143.48;38.28;118439.88;5095670;28;20358;-40
2023/06/13 01:57:06;;;;;;;8.45;4.20;;;;;;;-143.48;38.40;118439.88;5095377;28;20028;-39
2023/06/13 01:59:32;;;;;;;7.95;4.10;;;;;;;-143.48;38.82;118439.88;5095300;28;20028;-39
2023/06/13 02:01:58;;;;;;;14.13;4.28;;;;;;;-143.48;39.02;118439.88;5076971;28;20058;-39
2023/06/13 02:04:23;;;;;;;9.98;4.25;;;;;;;-143.48;38.94;118439.88;5096014;28;20028;-39
2023/06/13 02:06:49;;;;;;;8.10;4.10;;;;;;;-143.48;39.45;118439.88;5095144;28;20019;-39
2023/06/13 02:09:14;;;;;;;8.52;4.47;;;;;;;-143.48;39.38;118439.88;5095879;28;20028;-39
2023/06/13 02:11:40;;;;;;;10.13;4.47;;;;;;;-143.48;39.30;118439.88;5095518;28;20052;-39
2023/06/13 02:14:06;;;;;;;7.05;4.60;;;;;;;-143.48;39.35;118439.88;5095001;28;20541;-39
2023/06/13 02:16:32;;;;;;;7.63;4.50;;;;;;;-143.48;39.34;118439.88;5095241;28;20077;-39
2023/06/13 02:19:00;;;;;;;10.30;4.47;;;;;;;-143.48;39.61;118439.88;5094946;28;20024;-39
2023/06/13 02:21:29;;;;;;;8.20;4.45;;;;;;;-143.48;39.72;118439.88;5095442;28;20028;-39
2023/06/13 02:23:54;;;;;;;6.35;4.30;;;;;;;-143.48;39.88;118439.88;5094774;28;20035;-39
2023/06/13 02:26:19;;;;;;;8.80;4.35;;;;;;;-143.48;40.35;118439.88;5094917;28;20024;-39
2023/06/13 02:28:45;;;;;;;6.75;4.30;;;;;;;-143.48;40.29;118439.88;5095014;28;20028;-39
2023/06/13 02:31:11;;;;;;;6.72;4.40;;;;;;;-143.48;41.06;118439.88;5093807;28;20439;-39
2023/06/13 02:33:38;;;;;;;8.60;4.97;;;;;;;-143.48;41.47;118439.88;5076589;28;20020;-39
2023/06/13 02:36:04;;;;;;;6.28;4.40;;;;;;;-143.48;41.46;118439.88;5094545;28;20394;-39
2023/06/13 02:38:30;;;;;;;8.20;4.57;;;;;;;-143.48;42.34;118439.88;5094409;28;20103;-39
2023/06/13 02:40:55;;;;;;;7.57;4.43;;;;;;;-143.48;42.51;118439.88;5094498;28;20093;-38
2023/06/13 02:43:22;;;;;;;12.43;4.78;;;;;;;-143.48;42.65;118439.88;5094970;28;20108;-39
2023/06/13 02:45:47;;;;;;;11.75;4.65;;;;;;;-143.48;42.81;118439.88;5094662;28;20031;-39
2023/06/13 02:48:12;;;;;;;12.18;4.90;;;;;;;-143.48;42.92;118439.88;5094539;28;20028;-39
2023/06/13 02:50:38;;;;;;;8.23;4.60;;;;;;;-143.48;43.13;118439.88;5094350;28;20126;-39
2023/06/13 02:53:03;;;;;;;5.60;4.38;;;;;;;-143.48;43.27;118439.88;5094225;28;20475;-40
2023/06/13 02:55:29;;;;;;;9.38;4.93;;;;;;;-143.48;43.62;118439.88;5094954;28;20028;-39
2023/06/13 02:57:55;;;;;;;6.50;4.45;;;;;;;-143.48;43.57;118439.88;5094188;28;20024;-40
2023/06/13 03:00:21;;;;;;;6.13;4.60;;;;;;;-143.48;43.87;118439.88;5094431;28;20524;-39
2023/06/13 03:02:46;;;;;;;7.18;4.40;;;;;;;-143.48;43.91;118439.88;5094293;28;20081;-39
2023/06/13 03:05:15;;;;;;;8.02;4.72;;;;;;;-143.48;43.82;118439.88;5094046;28;20024;-39
2023/06/13 03:07:46;;;;;;;8.27;4.63;;;;;;;-143.48;44.03;118439.88;5094040;28;20032;-39
2023/06/13 03:10:12;;;;;;;9.05;4.68;;;;;;;-143.48;43.84;118439.88;5093941;28;20028;-39
2023/06/13 03:12:38;;;;;;;7.20;4.82;;;;;;;-143.48;43.96;118439.88;5094105;28;20020;-40
2023/06/13 03:15:03;;;;;;;7.10;4.65;;;;;;;-143.48;43.84;118439.88;5093888;28;20031;-39
2023/06/13 03:17:29;;;;;;;8.32;4.82;;;;;;;-143.48;44.12;118439.88;5093825;28;20028;-39
2023/06/13 03:19:55;;;;;;;6.40;4.53;;;;;;;-143.48;44.46;118439.88;5093754;28;20032;-39
2023/06/13 03:22:20;;;;;;;9.15;5.00;;;;;;;-143.48;45.00;118439.88;5094049;28;20016;-39
2023/06/13 03:24:46;;;;;;;7.75;5.03;;;;;;;-143.48;45.05;118439.88;5093860;28;20038;-38
2023/06/13 03:27:12;;;;;;;7.68;4.93;;;;;;;-143.48;45.52;118439.88;5093978;28;20466;-39
2023/06/13 03:29:38;;;;;;;11.02;4.80;;;;;;;-143.48;44.63;118439.88;5093702;28;20025;-39
2023/06/13 03:32:04;;;;;;;10.77;4.80;;;;;;;-143.48;45.16;118439.88;5093534;28;20115;-39
2023/06/13 03:34:31;;;;;;;10.90;4.95;;;;;;;-143.48;45.03;118439.88;5093863;28;20055;-39
2023/06/13 03:36:56;;;;;;;9.85;4.60;;;;;;;-143.48;44.84;118439.88;5093416;28;20022;-39
2023/06/13 03:39:22;;;;;;;13.32;5.55;;;;;;;-143.48;44.60;118439.88;5093737;28;20111;-39
2023/06/13 03:41:47;;;;;;;12.15;5.00;;;;;;;-143.48;44.68;118439.88;5074942;28;20502;-39
2023/06/13 03:44:12;;;;;;;9.27;4.60;;;;;;;-143.48;45.04;118439.88;5093452;28;20024;-39
2023/06/13 03:46:38;;;;;;;10.18;5.20;;;;;;;-143.48;44.33;118439.88;5093419;28;20024;-39
2023/06/13 03:49:03;;;;;;;8.70;4.93;;;;;;;-143.48;44.42;118439.88;5093724;28;20024;-38
2023/06/13 03:51:28;;;;;;;8.48;5.00;;;;;;;-143.48;44.01;118439.88;5093147;28;20479;-39
2023/06/13 03:53:55;;;;;;;8.63;5.13;;;;;;;-143.48;44.06;118439.88;5093527;28;20475;-39
2023/06/13 03:56:20;;;;;;;12.40;5.40;;;;;;;-143.48;43.77;118439.88;5093336;28;20026;-39
2023/06/13 03:58:45;;;;;;;12.55;4.90;;;;;;;-143.48;43.74;118439.88;5093296;28;20020;-39
2023/06/13 04:01:11;;;;;;;12.70;4.90;;;;;;;-143.48;43.84;118439.88;5093604;28;20091;-39
2023/06/13 04:03:39;;;;;;;12.27;4.88;;;;;;;-143.48;44.04;118439.88;5093521;28;20024;-39
2023/06/13 04:06:05;;;;;;;8.32;5.00;;;;;;;-143.48;44.11;118439.88;5093257;28;20016;-40
2023/06/13 04:08:31;;;;;;;9.75;4.72;;;;;;;-143.48;44.09;118439.88;5093234;28;20076;-40
2023/06/13 04:10:56;;;;;;;9.38;5.15;;;;;;;-143.48;44.12;118439.88;5093365;28;20107;-40
2023/06/13 04:13:21;;;;;;;13.43;5.25;;;;;;;-143.48;44.15;118439.88;5093492;28;20505;-40
2023/06/13 04:15:47;;;;;;;7.82;4.97;;;;;;;-143.48;43.95;118439.88;5093439;28;20103;-40
2023/06/13 04:18:16;;;;;;;10.80;5.20;;;;;;;-143.48;44.06;118439.88;5093354;28;20039;-40
2023/06/13 04:20:42;;;;;;;8.13;4.97;;;;;;;-143.48;44.53;118439.88;5093063;28;20035;-40
2023/06/13 04:23:07;;;;;;;10.00;5.13;;;;;;;-143.48;44.45;118439.88;5093091;28;20150;-40
2023/06/13 04:25:33;;;;;;;9.90;5.05;;;;;;;-143.48;44.87;118439.88;5093109;28;20463;-40
2023/06/13 04:27:58;;;;;;;8.60;5.15;;;;;;;-143.48;45.36;118439.88;5093342;28;20027;-40
2023/06/13 04:30:24;;;;;;;9.63;4.75;;;;;;;-143.48;45.33;118439.88;5093275;28;20375;-39
2023/06/13 04:32:50;;;;;;;10.43;5.40;;;;;;;-143.48;45.12;118439.88;5093198;28;20028;-40
2023/06/13 04:35:21;;;;;;;9.65;5.10;;;;;;;-143.48;45.43;118439.88;5092960;28;20024;-39
2023/06/13 04:37:48;;;;;;;13.95;5.43;;;;;;;-143.48;44.96;118439.88;5093112;28;20462;-38
2023/06/13 04:40:14;;;;;;;8.68;5.40;;;;;;;-143.48;44.86;118439.88;5093181;28;20028;-39
2023/06/13 04:42:39;;;;;;;9.45;5.50;;;;;;;-143.48;45.61;118439.88;5092806;28;20115;-39
2023/06/13 04:45:05;;;;;;;8.77;5.07;;;;;;;-143.48;45.05;118439.88;5093413;28;20024;-38
2023/06/13 04:47:31;;;;;;;10.82;5.38;;;;;;;-143.48;45.05;118439.88;5093386;28;20031;-38
2023/06/13 04:49:59;;;;;;;10.05;5.07;;;;;;;-143.48;45.37;118439.88;5092658;28;20040;-38
2023/06/13 04:52:40;;;;;;;10.23;5.32;;;;;;;-143.48;45.07;118439.88;5093277;28;20540;-39
2023/06/13 04:55:06;;;;;;;9.13;4.93;;;;;;;-143.48;44.85;118439.88;5095312;28;20027;-39
2023/06/13 04:57:32;;;;;;;8.77;5.13;;;;;;;-143.48;44.80;118439.88;5096847;28;20028;-39
2023/06/13 05:00:01;;;;;;;13.70;5.30;;;;;;;-143.48;44.77;118439.88;5096798;28;20024;-38
2023/06/13 05:02:27;;;;;;;10.27;5.43;;;;;;;-143.48;44.38;118439.88;5097207;28;20370;-39
2023/06/13 05:04:52;;;;;;;9.80;5.80;;;;;;;-143.48;44.96;118439.88;5096715;28;20032;-39
2023/06/13 05:07:19;;;;;;;9.68;5.03;;;;;;;-143.48;44.84;118439.88;5096699;28;20033;-40
2023/06/13 05:09:44;;;;;;;7.28;5.13;;;;;;;-143.48;44.20;118439.88;5096653;28;20027;-39
2023/06/13 05:12:10;;;;;;;10.27;5.30;;;;;;;-143.48;44.58;118439.88;5096291;28;20405;-39
2023/06/13 05:14:37;;;;;;;13.45;5.30;;;;;;;-143.48;44.14;118439.88;5096480;28;20454;-39
2023/06/13 05:17:05;;;;;;;9.98;5.38;;;;;;;-143.48;43.87;118439.88;5096405;28;20028;-40
2023/06/13 05:19:31;;;;;;;8.48;5.28;;;;;;;-143.48;43.89;118439.88;5096834;28;20027;-41
2023/06/13 05:22:02;;;;;;;9.85;5.55;;;;;;;-143.48;43.86;118439.88;5096295;28;20026;-40
2023/06/13 05:24:29;;;;;;;14.32;5.63;;;;;;;-143.48;43.72;118439.88;5078238;28;20490;-40
2023/06/13 05:26:54;;;;;;;8.95;5.30;;;;;;;-143.48;44.04;118439.88;5096273;28;20531;-39
2023/06/13 05:29:20;;;;;;;10.07;5.45;;;;;;;-143.48;43.55;118439.88;5096183;28;20023;-39
2023/06/13 05:31:45;;;;;;;11.30;5.30;;;;;;;-143.48;41.11;118439.88;5095848;28;20020;-39
2023/06/13 05:34:10;;;;;;;8.90;5.25;;;;;;;-143.48;39.02;118439.88;5096142;28;20019;-40
2023/06/13 05:36:36;;;;;;;9.38;5.00;;;;;;;-143.48;37.33;118439.88;5096090;28;20043;-40
2023/06/13 05:39:01;;;;;;;12.23;5.50;;;;;;;-143.48;35.45;118439.88;5095697;28;20020;-40
2023/06/13 05:41:26;;;;;;;9.88;5.20;;;;;;;-143.48;34.56;118439.88;5077925;28;20020;-40
2023/06/13 05:43:52;;;;;;;9.73;5.25;;;;;;;-143.48;32.82;118439.88;5095709;28;20059;-41
2023/06/13 05:46:17;;;;;;;13.45;4.93;;;;;;;-143.48;33.00;118439.88;5096217;28;20028;-40
2023/06/13 05:48:42;;;;;;;11.82;5.05;;;;;;;-143.48;31.73;118439.88;5096372;28;20086;-40
2023/06/13 05:51:08;;;;;;;8.88;4.85;;;;;;;-143.48;32.63;118439.88;5077513;28;20036;-40
2023/06/13 05:53:33;;;;;;;7.32;4.40;;;;;;;-143.48;31.70;118439.88;5096035;28;20023;-40
2023/06/13 05:55:59;;;;;;;8.63;4.70;;;;;;;-143.48;31.86;118439.88;5095718;28;20024;-40
2023/06/13 05:58:24;;;;;;;11.80;4.90;;;;;;;-143.48;30.89;118439.88;5095673;28;20035;-40
2023/06/13 06:00:50;;;;;;;18.65;5.40;;;;;;;-143.48;31.59;118439.88;5077190;28;20885;-40
2023/06/13 06:03:16;;;;;;;15.10;4.90;;;;;;;-143.48;30.94;118439.88;5095576;28;20047;-40
2023/06/13 06:05:41;;;;;;;7.47;4.57;;;;;;;-143.48;30.87;118439.88;5095048;28;20137;-41
2023/06/13 06:08:06;;;;;;;8.18;4.65;;;;;;;-143.48;30.95;118439.88;5095170;28;20020;-40
2023/06/13 06:10:32;;;;;;;9.30;5.07;;;;;;;-143.48;31.73;118439.88;5095455;28;20056;-41
2023/06/13 06:12:57;;;;;;;8.20;5.17;;;;;;;-143.48;31.09;118439.88;5095071;28;20455;-40
2023/06/13 06:15:22;;;;;;;10.38;5.07;;;;;;;-143.48;30.75;118439.88;5095274;28;20268;-40
2023/06/13 06:17:48;;;;;;;7.97;4.75;;;;;;;-143.48;31.11;118439.88;5095505;28;20020;-40
2023/06/13 06:20:13;;;;;;;9.27;4.93;;;;;;;-143.48;30.99;118439.88;5094782;28;20032;-40
2023/06/13 06:22:38;;;;;;;7.55;5.10;;;;;;;-143.48;31.93;118439.88;5095135;28;20045;-40
2023/06/13 06:25:05;;;;;;;11.27;5.15;;;;;;;-143.48;31.03;118439.88;5094829;28;20118;-40
2023/06/13 06:27:30;;;;;;;6.20;4.95;;;;;;;-143.48;29.77;118439.88;5095014;28;20032;-41
2023/06/13 06:29:56;;;;;;;15.43;5.47;;;;;;;-143.48;30.69;118439.88;5094823;28;20421;-40
2023/06/13 06:32:21;;;;;;;7.93;4.80;;;;;;;-143.48;30.34;118439.88;5094719;28;20028;-40
2023/06/13 06:34:46;;;;;;;11.55;5.45;;;;;;;-143.48;30.69;118439.88;5094696;28;20110;-40
2023/06/13 06:37:13;;;;;;;12.70;5.57;;;;;;;-143.48;31.40;118439.88;5095257;28;20132;-40
2023/06/13 06:39:38;;;;;;;9.98;5.00;;;;;;;-143.48;32.65;118439.88;5094526;28;20038;-40
2023/06/13 06:42:04;;;;;;;9.77;4.95;;;;;;;-143.48;32.76;118439.88;5095069;28;20020;-40
2023/06/13 06:44:29;;;;;;;11.38;4.95;;;;;;;-143.48;33.95;118439.88;5094527;28;20176;-41
2023/06/13 06:46:54;;;;;;;7.75;4.93;;;;;;;-143.48;33.12;118439.88;5094763;28;20052;-40
2023/06/13 06:49:20;;;;;;;9.95;5.07;;;;;;;-143.48;32.77;118439.88;5094999;28;20405;-40
2023/06/13 06:51:45;;;;;;;7.78;4.72;;;;;;;-143.48;32.52;118439.88;5094180;28;20472;-40
2023/06/13 06:54:10;;;;;;;11.88;4.57;;;;;;;-143.48;33.24;118439.88;5094428;28;20020;-40
2023/06/13 06:56:36;;;;;;;12.45;4.78;;;;;;;-143.48;32.83;118439.88;5094819;28;20099;-40
2023/06/13 06:59:01;;;;;;;10.35;4.85;;;;;;;-143.48;32.76;118439.88;5094796;28;20034;-40
2023/06/13 07:01:26;;;;;;;9.20;4.82;;;;;;;-143.48;33.40;118439.88;5094380;28;20020;-40
2023/06/13 07:03:52;;;;;;;9.35;4.65;;;;;;;-143.48;32.60;118439.88;5094094;28;20090;-40
2023/06/13 07:06:19;;;;;;;6.53;4.63;;;;;;;-143.48;32.16;118439.88;5094369;28;20028;-40
2023/06/13 07:08:44;;;;;;;8.32;4.40;;;;;;;-143.48;32.17;118439.88;5094118;28;20031;-40
2023/06/13 07:11:09;;;;;;;11.75;4.63;;;;;;;-143.48;32.52;118439.88;5093966;28;20408;-40
2023/06/13 07:13:34;;;;;;;10.55;4.57;;;;;;;-143.48;32.62;118439.88;5093998;28;20073;-40
2023/06/13 07:16:00;;;;;;;10.02;5.05;;;;;;;-143.48;33.19;118439.88;5094096;28;20055;-40
2023/06/13 07:18:25;;;;;;;9.35;4.40;;;;;;;-143.48;32.14;118439.88;5093528;28;20017;-40
2023/06/13 07:20:51;;;;;;;11.02;4.63;;;;;;;-143.48;31.86;118439.88;5094520;28;20019;-41
2023/06/13 07:23:16;;;;;;;10.05;4.38;;;;;;;-143.48;32.86;118439.88;5093659;28;20024;-40
2023/06/13 07:25:41;;;;;;;7.30;4.60;;;;;;;-143.48;32.14;118439.88;5093686;28;20524;-40
2023/06/13 07:28:08;;;;;;;7.22;4.35;;;;;;;-143.48;31.36;118439.88;5093738;28;20074;-40
2023/06/13 07:30:33;;;;;;;8.15;4.50;;;;;;;-143.48;31.77;118439.88;5094054;28;20462;-40
2023/06/13 07:32:59;;;;;;;13.23;4.57;;;;;;;-143.48;30.32;118439.88;5094013;28;20099;-40
2023/06/13 07:35:24;;;;;;;9.88;4.50;;;;;;;-143.48;30.87;118439.88;5093718;28;20063;-40
2023/06/13 07:37:50;;;;;;;12.13;4.28;;;;;;;-143.48;30.83;118439.88;5093846;28;20051;-40
2023/06/13 07:40:16;;;;;;;7.10;4.28;;;;;;;-143.48;30.67;118439.88;5075584;28;20371;-40
2023/06/13 07:42:41;;;;;;;9.07;4.18;;;;;;;-143.48;31.11;118439.88;5075434;28;20039;-40
2023/06/13 07:45:07;;;;;;;8.27;4.30;;;;;;;-143.48;30.17;118439.88;5094156;28;20023;-40
2023/06/13 07:47:32;;;;;;;12.25;4.53;;;;;;;-143.48;29.87;118439.88;5093856;28;20420;-40
2023/06/13 07:49:57;;;;;;;9.37;4.17;;;;;;;-143.48;30.45;118439.88;5093321;28;20476;-40
2023/06/13 07:52:23;;;;;;;15.00;4.40;;;;;;;-143.48;29.52;118439.88;5075348;28;20291;-40
2023/06/13 07:54:48;;;;;;;11.50;4.50;;;;;;;-143.48;29.27;118439.88;5093449;28;20108;-41
2023/06/13 07:57:13;;;;;;;9.48;4.40;;;;;;;-143.48;29.97;118439.88;5093370;28;20065;-40
2023/06/13 07:59:39;;;;;;;35.70;4.88;;;;;;;-143.48;29.92;118439.88;5093576;28;20465;-40
2023/06/13 08:02:04;;;;;;;9.32;4.00;;;;;;;-143.48;29.21;118439.88;5093545;28;20019;-39
2023/06/13 08:04:29;;;;;;;9.43;4.00;;;;;;;-143.48;29.12;118439.88;5093426;28;20028;-40
2023/06/13 08:06:55;;;;;;;5.60;3.70;;;;;;;-143.48;28.62;118439.88;5093625;28;20020;-40
2023/06/13 08:09:22;;;;;;;7.22;3.78;;;;;;;-143.48;28.73;118439.88;5093212;28;20391;-40
2023/06/13 08:11:48;;;;;;;9.80;4.38;;;;;;;-143.48;28.44;118439.88;5093114;28;20031;-40
2023/06/13 08:14:14;;;;;;;8.35;3.75;;;;;;;-143.48;27.68;118439.88;5093242;28;20020;-40
2023/06/13 08:16:39;;;;;;;8.80;4.10;;;;;;;-143.48;28.51;118439.88;5093272;28;20378;-40
2023/06/13 08:19:04;;;;;;;10.93;4.32;;;;;;;-143.48;28.79;118439.88;5093176;28;20458;-40
2023/06/13 08:21:30;;;;;;;10.02;3.88;;;;;;;-143.48;28.64;118439.88;5093120;28;20055;-40
2023/06/13 08:23:56;;;;;;;5.88;4.25;;;;;;;-143.48;29.18;118439.88;5093353;28;20355;-40
2023/06/13 08:26:22;;;;;;;6.45;4.10;;;;;;;-143.48;28.90;118439.88;5093082;28;20115;-39
2023/06/13 08:28:48;;;;;;;7.10;4.30;;;;;;;-143.48;27.70;118439.88;5095669;28;20028;-39
2023/06/13 08:31:13;;;;;;;9.40;4.18;;;;;;;-143.48;28.20;118439.88;5097582;28;20031;-39
2023/06/13 08:33:39;;;;;;;7.97;3.83;;;;;;;-143.48;27.56;118439.88;5097304;28;20036;-39
2023/06/13 08:36:05;;;;;;;8.15;3.97;;;;;;;-143.48;27.43;118439.88;5097510;28;20028;-40
2023/06/13 08:38:30;;;;;;;5.28;3.80;;;;;;;-143.48;27.11;118439.88;5096944;28;20031;-39
2023/06/13 08:40:56;;;;;;;6.47;4.03;;;;;;;-143.48;26.89;118439.88;5097241;28;20024;-39
2023/06/13 08:43:22;;;;;;;7.25;4.28;;;;;;;-143.48;26.98;118439.88;5096968;28;20016;-40
2023/06/13 08:45:48;;;;;;;9.52;4.07;;;;;;;-143.48;25.96;118439.88;5096914;28;20032;-40
2023/06/13 08:48:13;;;;;;;10.85;4.35;;;;;;;-143.48;25.98;118439.88;5096824;28;20031;-39
2023/06/13 08:50:39;;;;;;;9.52;4.10;;;;;;;-143.48;25.40;118439.88;5096726;28;20455;-40
2023/06/13 08:53:06;;;;;;;10.02;4.20;;;;;;;-143.48;26.09;118439.88;5096997;28;20034;-40
2023/06/13 08:55:36;;;;;;;17.33;4.47;;;;;;;-143.48;25.86;118439.88;5096782;28;20103;-40
2023/06/13 08:58:03;;;;;;;13.35;3.88;;;;;;;-143.48;25.56;118439.88;5097410;28;20020;-42
2023/06/13 09:00:35;;;;;;;7.35;4.20;;;;;;;-143.48;25.59;118439.88;5097366;28;20153;-39
2023/06/13 09:03:01;;;;;;;8.95;4.30;;;;;;;-143.48;25.70;118439.88;5096981;28;20455;-40
2023/06/13 09:05:28;;;;;;;14.55;4.30;;;;;;;-143.48;25.58;118439.88;5097015;28;20028;-40
2023/06/13 09:07:55;;;;;;;8.32;4.00;;;;;;;-143.48;25.03;118439.88;5096732;28;20480;-39
2023/06/13 09:10:21;;;;;;;15.35;4.57;;;;;;;-143.48;25.36;118439.88;5096701;28;20027;-40
2023/06/13 09:12:49;;;;;;;9.20;4.03;;;;;;;-143.48;25.32;118439.88;5096259;28;20374;-39
2023/06/13 09:15:14;;;;;;;6.50;3.95;;;;;;;-143.48;25.70;118439.88;5096312;28;20036;-39
2023/06/13 09:17:40;;;;;;;7.30;4.43;;;;;;;-143.48;25.23;118439.88;5096873;28;20027;-40
2023/06/13 09:20:07;;;;;;;6.80;4.25;;;;;;;-143.48;25.72;118439.88;5096512;28;20089;-39
2023/06/13 09:22:36;;;;;;;13.10;4.25;;;;;;;-143.48;25.62;118439.88;5096450;28;20144;-40
2023/06/13 09:25:04;;;;;;;16.30;4.45;;;;;;;-143.48;25.36;118439.88;5096697;28;20055;-40
2023/06/13 09:27:30;;;;;;;11.43;4.10;;;;;;;-143.48;25.27;118439.88;5096298;28;20463;-39
2023/06/13 09:30:02;;;;;;;11.77;4.20;;;;;;;-143.48;25.01;118439.88;5096611;28;20024;-36
2023/06/13 09:32:27;;;;;;;10.53;4.10;;;;;;;-143.48;25.66;118439.88;5096497;28;20023;-39
2023/06/13 09:34:53;;;;;;;6.63;4.13;;;;;;;-143.48;25.69;118439.88;5096226;28;20028;-39
2023/06/13 09:37:18;;;;;;;9.57;4.22;;;;;;;-143.48;25.01;118439.88;5096438;28;20044;-39
2023/06/13 09:39:51;;;;;;;11.13;4.18;;;;;;;-143.48;25.53;118439.88;5095181;28;20445;-39
2023/06/13 09:42:21;;;;;;;6.95;4.10;;;;;;;-143.48;25.46;118439.88;5095852;28;20048;-40
2023/06/13 09:44:51;;;;;;;13.55;4.28;;;;;;;-143.48;25.12;118439.88;5095959;28;20148;-39
2023/06/13 09:47:22;;;;;;;14.05;4.43;;;;;;;-143.48;25.64;118439.88;5096021;28;20112;-39
2023/06/13 09:49:51;;;;;;;9.95;4.28;;;;;;;-143.48;24.89;118439.88;5095350;28;20103;-39
2023/06/13 09:52:16;;;;;;;17.77;4.10;;;;;;;-143.48;24.70;118439.88;5094461;28;20020;-39
2023/06/13 09:54:44;;;;;;;7.65;4.25;;;;;;;-143.48;25.45;118439.88;5095492;28;20074;-39
2023/06/13 09:57:10;;;;;;;6.68;4.40;;;;;;;-143.48;25.05;118439.88;5095352;28;20111;-40
2023/06/13 09:59:35;;;;;;;7.78;4.65;;;;;;;-143.48;24.80;118439.88;5096025;28;20105;-39
2023/06/13 10:02:01;;;;;;;9.63;4.20;;;;;;;-143.48;24.72;118439.88;5095770;28;20378;-40
2023/06/13 10:04:27;;;;;;;18.08;4.40;;;;;;;-143.48;25.40;118439.88;5095922;28;20307;-39
2023/06/13 10:06:52;;;;;;;10.73;4.28;;;;;;;-143.48;24.56;118439.88;5095421;28;20024;-40
2023/06/13 10:09:18;;;;;;;8.30;4.10;;;;;;;-143.48;24.93;118439.88;5095848;28;20024;-40
2023/06/13 10:11:47;;;;;;;9.68;4.30;;;;;;;-143.48;25.04;118439.88;5095431;28;20295;-40
2023/06/13 10:14:17;;;;;;;12.32;4.35;;;;;;;-143.48;25.17;118439.88;5095433;28;20031;-40
2023/06/13 10:16:59;;;;;;;7.80;3.90;;;;;;;-143.48;24.57;118439.88;5095624;28;20028;-41
2023/06/13 10:19:25;;;;;;;13.05;4.32;;;;;;;-143.48;24.69;118439.88;5095447;28;20035;-41
2023/06/13 10:21:52;;;;;;;6.88;4.10;;;;;;;-143.48;25.64;118439.88;5095268;28;20020;-41
2023/06/13 10:24:19;;;;;;;11.25;4.18;;;;;;;-143.48;25.37;118439.88;5095053;28;20028;-40
2023/06/13 10:26:46;;;;;;;6.47;4.05;;;;;;;-143.48;25.34;118439.88;5076760;28;20024;-40
2023/06/13 10:29:49;;;;;;;9.52;4.20;;;;;;;-143.48;24.23;118439.88;5094871;28;20527;-40
2023/06/13 10:32:35;;;;;;;9.82;3.95;;;;;;;-143.48;24.56;118439.88;5094955;28;20028;-40
2023/06/13 10:35:08;;;;;;;10.77;4.03;;;;;;;-143.48;24.28;118439.88;5075980;28;20020;-41
2023/06/13 10:37:53;;;;;;;9.02;4.30;;;;;;;-143.48;25.20;118439.88;5094462;28;20027;-40
2023/06/13 10:40:58;;;;;;;9.30;4.20;;;;;;;-143.48;25.64;118439.88;5095012;28;20060;-40
2023/06/13 10:43:39;;;;;;;15.43;4.50;;;;;;;-143.48;25.30;118439.88;5095198;28;20344;-40
2023/06/13 10:46:07;;;;;;;15.48;4.55;;;;;;;-143.48;24.81;118439.88;5094991;28;20035;-41
2023/06/13 10:48:47;;;;;;;13.20;4.30;;;;;;;-143.48;25.20;118439.88;5094800;28;20039;-40
2023/06/13 10:51:12;;;;;;;7.85;4.07;;;;;;;-143.48;25.15;118439.88;5093690;28;20482;-40
2023/06/13 10:53:38;;;;;;;7.25;4.18;;;;;;;-143.48;25.16;118439.88;5093663;28;20024;-40
2023/06/13 10:56:07;;;;;;;8.02;4.53;;;;;;;-143.48;24.92;118439.88;5094724;28;20109;-41
2023/06/13 10:58:34;;;;;;;7.85;4.30;;;;;;;-143.48;24.07;118439.88;5094931;28;20024;-40
2023/06/13 11:01:24;;;;;;;15.60;4.13;;;;;;;-143.48;24.50;118439.88;5094089;28;20105;-40
2023/06/13 11:03:49;;;;;;;14.07;4.60;;;;;;;-143.48;24.76;118439.88;5076002;28;20020;-41
2023/06/13 11:06:15;;;;;;;10.57;4.03;;;;;;;-143.48;23.56;118439.88;5094030;28;20030;-41